DNBE

Benin Airport

Benin, Nigeria
TAF DNBE 171530Z 1718/1824 VRB02KT 8000 FEW010 TEMPO 1805/1808 3000 BR/HZ PROB30 1806/1807 1500 BECMG 1808/1810 17010KT BKN013 FEW020CB
Issued Valid From Valid To
Nov-17 @ 15:30 UTC
(6 hours ago)
Nov-17 @ 18:00 UTC
(4 hours ago)
Nov-19 @ 00:00 UTC
(-1 days ago)
Nov-17 @ 18:00 to Nov-18 @ 08:00
TAF DNBE 171530Z 1718/1824 VRB02KT 8000 FEW010
Wind Visibility Clouds
Variable at 2 knots 7,998 meters
  • Few at 1,000' AGL
Temporary Nov-18 @ 05:00 to Nov-18 @ 08:00
TEMPO 1805/1808 3000 BR/HZ
Visibility Conditions
2,993 meters
  • Haze
  • Mist
Probable  (Probability 30%) Nov-18 @ 06:00 to Nov-18 @ 07:00
PROB30 1806/1807 1500
Visibility
1,497 meters
Becoming Nov-18 @ 08:00 to Nov-19 @ 00:00
BECMG 1808/1810 17010KT BKN013 FEW020CB
Wind Visibility Clouds
170° at 10 knots 7,998 meters
  • Broken at 1,300' AGL
  • Few at 2,000' AGL
TAF DNBE 171530Z 1718/1824 VRB02KT 8000 FEW010 TEMPO 1805/1808 3000 BR/HZ PROB30 1806/1807 1500 BECMG 1808/1810 17010KT BKN013 FEW020CB
Issued Nov-17 @ 15:30 UTC
(6 hours ago)
Valid From Nov-17 @ 18:00 UTC
(4 hours ago)
Valid To Nov-19 @ 00:00 UTC
(-1 days ago)
Nov-17 @ 18:00 - Nov-18 @ 08:00
Wind Visibility
Variable at 2 knots 7,998 meters
Clouds
  • Few at 1,000' AGL
Temporary Nov-18 @ 05:00 - Nov-18 @ 08:00
Conditions
  • Haze
  • Mist
Probability 30% Probable Nov-18 @ 06:00 - Nov-18 @ 07:00
Becoming Nov-18 @ 08:00 - Nov-19 @ 00:00
Wind Visibility
170° at 10 knots 7,998 meters
Clouds
  • Broken at 1,300' AGL
  • Few at 2,000' AGL